Flight Track Log - Related Links

Times and Time Zones

All times are in EST time to prevent confusion due to time zone crossing. See the UAL3596 flight status page for this flight to view local times or setup timezone preferences in your user account.

Time Position Orientation Groundspeed Altitude Reporting Facility
EST Latitude Longitude Course Direction KTS MPH feet Rate Location/Type
Tue 01:19:00 PM 39.2922 -77.3105 19° North  Level Estimated
Tue 01:20:00 PM 39.3353 -77.2917 19° North  Level Estimated
Tue 01:21:00 PM 39.3783 -77.2729 19° North  Level Estimated
Tue 01:22:00 PM 39.4452 -77.2437 19° North  Level Estimated
Tue 01:23:00 PM 39.5120 -77.2144 19° North  Level Estimated
Tue 01:24:00 PM 39.5788 -77.1850 19° North  Level Estimated
Tue 01:25:00 PM 39.6455 -77.1556 19° North  Level Estimated
Tue 01:26:00 PM 39.7123 -77.1262 19° North  Level Estimated
Tue 01:27:00 PM 39.7791 -77.0967 19° North  Level Estimated
Tue 01:28:00 PM 39.8458 -77.0671 19° North  Level Estimated
Tue 01:29:00 PM 39.9126 -77.0375 19° North  Level Estimated
Tue 01:30:00 PM 39.9793 -77.0078 19° North  Level Estimated
Tue 01:31:00 PM 40.0461 -76.9781 19° North  Level Estimated
Tue 01:32:00 PM 40.1128 -76.9483 19° North  Level Estimated
Tue 01:33:00 PM 40.1795 -76.9184 19° North  Level Estimated
Tue 01:34:00 PM 40.2463 -76.8885 19° North  Level Estimated
Tue 01:35:00 PM 40.3130 -76.8586 19° North  Level Estimated
Tue 01:36:00 PM 40.3797 -76.8285 19° North  Level Estimated
Tue 01:37:00 PM 40.4464 -76.7984 19° North  Level Estimated
Tue 01:38:00 PM 40.5130 -76.7683 19° North  Level Estimated
Tue 01:39:00 PM 40.5797 -76.7381 19° North  Level Estimated
Tue 01:40:00 PM 40.6464 -76.7078 19° North  Level Estimated
Tue 01:41:00 PM 40.7131 -76.6775 19° North  Level Estimated
Tue 01:42:00 PM 40.7797 -76.6471 19° North  Level Estimated
Tue 01:43:00 PM 40.8464 -76.6167 19° North  Level Estimated
Tue 01:44:00 PM 40.9130 -76.5861 19° North  Level Estimated
Tue 01:45:00 PM 40.9796 -76.5556 19° North  Level Estimated
Tue 01:46:00 PM 41.0462 -76.5249 19° North  Level Estimated
Tue 01:47:00 PM 41.1129 -76.4942 19° North  Level Estimated
Tue 01:48:00 PM 41.1795 -76.4635 19° North  Level Estimated
Tue 01:49:00 PM 41.2461 -76.4326 19° North  Level Estimated
Tue 01:50:00 PM 41.3126 -76.4018 19° North  Level Estimated
Tue 01:51:00 PM 41.3792 -76.3708 19° North  Level Estimated
Tue 01:52:00 PM 41.4458 -76.3398 19° North  Level Estimated
Tue 01:53:00 PM 41.5123 -76.3087 19° North  Level Estimated
Tue 01:54:00 PM 41.5789 -76.2776 19° North  Level Estimated
Tue 01:55:00 PM 41.6455 -76.2464 19° North  Level Estimated
Tue 01:56:00 PM 41.7120 -76.2151 19° North  Level Estimated
Tue 01:57:00 PM 41.7785 -76.1838 19° North  Level Estimated
Tue 01:58:00 PM 41.8451 -76.1524 19° North  Level Estimated
Tue 01:59:00 PM 41.9116 -76.1209 19° North  Level Estimated
Tue 02:00:00 PM 41.9781 -76.0894 19° North  Level Estimated
Tue 02:01:00 PM 42.0446 -76.0578 19° North  Level Estimated
Tue 02:02:00 PM 42.1110 -76.0261 19° North  Level Estimated
Tue 02:03:00 PM 42.1775 -75.9944 19° North  Level Estimated
Tue 02:04:00 PM 42.2084 -75.9796 20° North  Level Estimated
Tue 02:05:00 PM 42.2084 -75.9796 35° Northeast  Level Estimated
Tue 02:06:00 PM 42.2084 -75.9796 35° Northeast  Level Estimated
Tue 02:07:00 PM 42.2084 -75.9796 35° Northeast  Level Estimated
Tue 02:08:00 PM 42.2084 -75.9796 35° Northeast  Level Estimated
Tue 02:09:00 PM 42.2084 -75.9796 35° Northeast  Level Estimated
Tue 02:10:00 PM 42.2084 -75.9796 35° Northeast  Level Estimated
Tue 02:11:00 PM 42.2084 -75.9796 35° Northeast  Level Estimated
Tue 02:12:00 PM 42.2084 -75.9796 35° Northeast  Level Estimated
Tue 02:13:00 PM 42.2084 -75.9796 35° Northeast  Level Estimated
Tue 02:14:00 PM 42.2084 -75.9796 35° Northeast  Level Estimated
Tue 02:15:00 PM 42.2084 -75.9796 35° Northeast  Level Estimated
Tue 02:16:00 PM 42.2084 -75.9796 35° Northeast  Level Estimated

Login

Don't have an account? Register now (free) for customized features, flight alerts, and more!